Lake Dynasty — 3FZB2 — position and weather

sailwx.info

Track history (hours):
 
Tides and Currents Weather Stations Pressure Air Temp Water Temp Dewpoint Dewpoint Depression Visibility Wind Speed Wind Dir Waves Ship Positions

Lake Dynasty

Last reported at 2017-Aug-16 00:04 UTC. Time now 2017-Aug-18 20:19 UTC.
Position N 20°14' E 110°28'.

Length 182 m; draft 12.5 m.

Type: Cargo ship. MMSI: 370957000.

Date/timePositionNaut miles runAvg speedWind from/ knotsBaromVisibWave heightAir tempDewpointWater temp
2017-Aug-16 00:04N 20°14' E 110°28'1 9.2
2017-Aug-16 00:00N 20°13' E 110°27'4 8.8
2017-Aug-15 23:30N 20°11' E 110°23'4 8.5
2017-Aug-15 23:00N 20°10' E 110°19'4 8.3
2017-Aug-15 22:30N 20°10' E 110°14'4 7.2
2017-Aug-15 22:00N 20°09' E 110°11'4 8.2
2017-Aug-15 21:30N 20°08' E 110°06'4 8.5
2017-Aug-15 20:58N 20°08' E 110°02'5 8.7
2017-Aug-15 20:26N 20°08' E 109°57'12 6.8
2017-Aug-15 18:39N 20°09' E 109°44'1 9.4
2017-Aug-15 18:30N 20°10' E 109°42'12 9.7
2017-Aug-15 17:18N 20°12' E 109°30'  
Track history (hours):
 
Tides and Currents Weather Stations Pressure Air Temp Water Temp Dewpoint Dewpoint Depression Visibility Wind Speed Wind Dir Waves Ship Positions

Lake Dynasty

Last reported at 2017-Aug-16 00:04 UTC. Time now 2017-Aug-18 20:19 UTC.
Position N 20°14' E 110°28'.

Length 182 m; draft 12.5 m.

Type: Cargo ship. MMSI: 370957000.

Date/timePositionNaut miles runAvg speedWind from/ knotsBaromVisibWave heightAir tempDewpointWater temp
2017-Aug-16 00:04N 20°14' E 110°28'1 9.2
2017-Aug-16 00:00N 20°13' E 110°27'4 8.8
2017-Aug-15 23:30N 20°11' E 110°23'4 8.5
2017-Aug-15 23:00N 20°10' E 110°19'4 8.3
2017-Aug-15 22:30N 20°10' E 110°14'4 7.2
2017-Aug-15 22:00N 20°09' E 110°11'4 8.2
2017-Aug-15 21:30N 20°08' E 110°06'4 8.5
2017-Aug-15 20:58N 20°08' E 110°02'5 8.7
2017-Aug-15 20:26N 20°08' E 109°57'12 6.8
2017-Aug-15 18:39N 20°09' E 109°44'1 9.4
2017-Aug-15 18:30N 20°10' E 109°42'12 9.7
2017-Aug-15 17:18N 20°12' E 109°30'  

Dump ship's entire track history